Time;durP1;ratioP1;P1;durP2;ratioP2;P2;SDS_P1;SDS_P2;PMS_P1;PMS_P2;Temp;Humidity;BMP_temperature;BMP_pressure;BME280_temperature;BME280_humidity;BME280_pressure;Samples;Min_cycle;Max_cycle;Signal;HPM_P1;HPM_P2
2022/09/16 00:01:31;;;;;;;5.50;1.40;;;;;;;9.80;100.00;98195.28;5069476;28;20036;-96
2022/09/16 00:03:57;;;;;;;6.00;1.63;;;;;;;9.77;100.00;98189.25;5086282;28;20502;-96
2022/09/16 00:06:28;;;;;;;11.20;1.83;;;;;;;9.89;100.00;98196.88;5088317;28;20414;-96
2022/09/16 00:08:59;;;;;;;6.22;1.45;;;;;;;9.86;100.00;98196.94;5066125;28;20061;-95
2022/09/16 00:11:25;;;;;;;7.82;1.50;;;;;;;9.88;100.00;98196.03;5065893;28;20098;-96
2022/09/16 00:13:51;;;;;;;6.10;1.30;;;;;;;9.93;100.00;98198.53;5088113;28;20032;-95
2022/09/16 00:16:23;;;;;;;5.63;1.20;;;;;;;9.80;100.00;98197.88;5069259;28;20092;-94
2022/09/16 00:18:56;;;;;;;5.60;1.30;;;;;;;9.76;100.00;98196.22;5090417;28;20127;-94
2022/09/16 00:21:22;;;;;;;6.68;1.55;;;;;;;9.98;100.00;98198.47;5072611;28;20064;-94
2022/09/16 00:23:48;;;;;;;6.53;1.30;;;;;;;9.95;100.00;98199.41;5072102;28;20093;-95
2022/09/16 00:26:14;;;;;;;4.68;1.15;;;;;;;9.94;100.00;98200.28;5073537;28;20566;-95
2022/09/16 00:28:39;;;;;;;6.07;1.27;;;;;;;9.93;100.00;98203.75;5080980;28;20078;-96
2022/09/16 00:31:05;;;;;;;5.30;2.78;;;;;;;10.08;100.00;98203.50;5075725;28;20093;-96
2022/09/16 00:33:30;;;;;;;7.22;1.20;;;;;;;9.92;100.00;98207.25;5074916;28;20028;-95
2022/09/16 00:36:06;;;;;;;5.57;1.20;;;;;;;9.88;100.00;98210.78;5087926;28;20116;-95
2022/09/16 00:38:32;;;;;;;4.28;1.08;;;;;;;9.87;100.00;98217.75;5066530;28;20039;-96
2022/09/16 00:40:58;;;;;;;5.72;1.30;;;;;;;9.67;100.00;98217.16;5072317;28;20385;-95
2022/09/16 00:43:24;;;;;;;6.22;1.00;;;;;;;9.75;100.00;98215.31;5088630;28;20027;-96
2022/09/16 00:46:04;;;;;;;4.97;1.20;;;;;;;9.14;100.00;98212.63;5073315;28;20029;-95
2022/09/16 00:48:31;;;;;;;5.80;1.10;;;;;;;9.55;100.00;98220.81;5088581;28;20035;-96
2022/09/16 00:51:05;;;;;;;5.55;1.30;;;;;;;9.39;100.00;98214.94;5091478;28;20039;-96
2022/09/16 00:53:35;;;;;;;4.25;1.23;;;;;;;9.46;100.00;98219.16;5091114;28;20432;-95
2022/09/16 00:56:04;;;;;;;7.28;1.25;;;;;;;9.43;100.00;98224.41;5073732;28;20051;-95
2022/09/16 00:58:46;;;;;;;5.80;1.20;;;;;;;9.46;100.00;98226.97;5069231;28;21294;-96
2022/09/16 01:01:13;;;;;;;5.40;1.40;;;;;;;9.34;100.00;98224.56;5072818;28;20028;-96
2022/09/16 01:03:54;;;;;;;5.90;1.20;;;;;;;8.91;100.00;98230.25;5067627;28;20027;-95
2022/09/16 01:06:22;;;;;;;7.15;1.27;;;;;;;9.00;100.00;98231.00;5070540;28;20026;-95
2022/09/16 01:08:49;;;;;;;5.93;1.00;;;;;;;8.64;100.00;98227.94;5073263;28;20095;-95
2022/09/16 01:11:15;;;;;;;5.47;0.90;;;;;;;9.04;100.00;98234.44;5074754;28;20031;-95
2022/09/16 01:13:42;;;;;;;4.43;1.10;;;;;;;8.89;100.00;98238.06;5073671;28;20416;-96
2022/09/16 01:16:33;;;;;;;5.25;0.90;;;;;;;9.12;100.00;98234.38;5071225;28;20071;-95
2022/09/16 01:19:30;;;;;;;3.50;0.80;;;;;;;9.23;100.00;98238.53;5087918;28;20284;-95
2022/09/16 01:22:32;;;;;;;5.10;0.90;;;;;;;9.37;100.00;98246.19;5091468;28;20032;-95
2022/09/16 01:25:03;;;;;;;5.22;0.88;;;;;;;9.47;100.00;98248.69;5085829;28;20028;-95
2022/09/16 01:27:31;;;;;;;4.22;0.85;;;;;;;9.50;100.00;98249.47;5073728;28;20086;-96
2022/09/16 01:30:42;;;;;;;5.35;1.00;;;;;;;9.46;100.00;98242.59;5075225;28;20042;-96
2022/09/16 01:33:10;;;;;;;3.13;0.60;;;;;;;9.55;100.00;98255.50;4989604;28;20133;-95
2022/09/16 01:35:54;;;;;;;3.78;0.80;;;;;;;9.72;100.00;98250.06;4991663;28;20117;-95
2022/09/16 01:38:23;;;;;;;;;;;;;;;9.07;100.00;98244.81;4990560;28;20057;-94
2022/09/16 01:41:01;;;;;;;4.88;0.82;;;;;;;9.07;100.00;98243.94;4982887;28;19969;-96
2022/09/16 01:43:55;;;;;;;4.38;0.95;;;;;;;9.51;100.00;98250.38;4990066;28;20043;-96
2022/09/16 01:46:35;;;;;;;3.30;0.73;;;;;;;9.59;100.00;98242.44;4989701;28;20037;-95
2022/09/16 01:49:15;;;;;;;4.78;0.93;;;;;;;9.88;100.00;98247.22;4995538;28;20050;-95
2022/09/16 01:51:51;;;;;;;3.60;0.95;;;;;;;9.32;100.00;98237.56;4993301;28;20026;-95
2022/09/16 01:54:32;;;;;;;4.32;1.02;;;;;;;9.15;100.00;98245.56;4990937;28;20425;-94
2022/09/16 01:57:54;;;;;;;4.20;0.90;;;;;;;9.26;100.00;98236.81;5010901;28;20266;-95
2022/09/16 02:00:19;;;;;;;6.40;1.00;;;;;;;9.89;100.00;98238.53;4998418;28;20080;-95
2022/09/16 02:02:57;;;;;;;7.72;1.20;;;;;;;9.87;100.00;98251.59;5006207;28;20037;-95
2022/09/16 02:05:41;;;;;;;4.00;0.90;;;;;;;10.08;100.00;98245.19;4990190;28;20040;-95
2022/09/16 02:08:15;;;;;;;4.80;1.25;;;;;;;9.61;100.00;98241.53;4993313;28;20041;-95
2022/09/16 02:10:45;;;;;;;3.17;0.70;;;;;;;9.83;100.00;98236.03;5055299;28;20020;-96
2022/09/16 02:13:34;;;;;;;3.17;0.90;;;;;;;9.54;100.00;98238.16;5072332;28;20125;-95
2022/09/16 02:16:25;;;;;;;3.42;0.98;;;;;;;9.71;100.00;98232.75;5066210;28;20040;-95
2022/09/16 02:19:01;;;;;;;4.18;0.77;;;;;;;9.28;100.00;98233.28;5050497;28;20029;-95
2022/09/16 02:21:30;;;;;;;3.40;0.77;;;;;;;9.81;100.00;98230.88;5049499;28;20701;-95
2022/09/16 02:24:01;;;;;;;6.78;1.10;;;;;;;9.84;100.00;98233.41;5062788;28;20025;-95
2022/09/16 02:26:30;;;;;;;3.83;1.02;;;;;;;9.78;100.00;98241.31;5054535;28;20028;-95
2022/09/16 02:28:58;;;;;;;3.97;0.90;;;;;;;9.63;100.00;98236.31;5071583;28;20180;-95
2022/09/16 02:31:31;;;;;;;2.50;0.75;;;;;;;9.68;100.00;98244.94;5070843;28;20063;-95
2022/09/16 02:34:05;;;;;;;3.70;0.98;;;;;;;9.70;100.00;98240.53;5068120;28;20035;-95
2022/09/16 02:36:33;;;;;;;5.35;1.13;;;;;;;10.18;100.00;98245.91;5069723;28;20037;-95
2022/09/16 02:39:09;;;;;;;3.92;1.08;;;;;;;10.28;100.00;98245.78;5069900;28;20241;-94
2022/09/16 02:41:38;;;;;;;3.60;0.75;;;;;;;10.23;100.00;98244.09;5076284;28;20020;-96
2022/09/16 02:44:04;;;;;;;4.10;1.15;;;;;;;10.00;100.00;98248.81;5056326;28;20032;-94
2022/09/16 02:46:38;;;;;;;4.30;0.80;;;;;;;9.93;100.00;98250.66;5058398;28;20028;-95
2022/09/16 02:49:07;;;;;;;4.05;0.93;;;;;;;10.16;100.00;98246.81;5050131;28;20616;-96
2022/09/16 02:51:52;;;;;;;3.97;1.00;;;;;;;9.84;100.00;98246.44;5056509;28;20029;-95
2022/09/16 02:54:32;;;;;;;3.88;0.90;;;;;;;10.07;100.00;98255.66;5045205;28;20052;-95
2022/09/16 02:57:00;;;;;;;5.38;1.05;;;;;;;9.93;100.00;98250.66;5081764;28;20068;-96
2022/09/16 02:59:25;;;;;;;5.50;0.95;;;;;;;9.65;100.00;98252.78;5072945;28;20036;-95
2022/09/16 03:01:51;;;;;;;5.47;1.00;;;;;;;9.83;100.00;98249.91;5074376;28;20039;-95
2022/09/16 03:04:18;;;;;;;2.78;0.88;;;;;;;9.88;100.00;98252.44;5072977;28;20021;-95
2022/09/16 03:06:45;;;;;;;5.13;0.82;;;;;;;9.78;100.00;98251.72;5071567;28;20020;-95
2022/09/16 03:09:13;;;;;;;6.65;1.08;;;;;;;8.96;100.00;98239.75;5072018;28;20500;-95
2022/09/16 03:12:07;;;;;;;3.75;0.85;;;;;;;8.89;100.00;98235.47;5090107;28;20032;-95
2022/09/16 03:14:52;;;;;;;;;;;;;;;8.90;100.00;98239.78;5067997;28;20020;-93
2022/09/16 03:17:42;;;;;;;2.30;0.68;;;;;;;8.91;100.00;98240.63;5092371;28;20400;-96
2022/09/16 03:20:26;;;;;;;4.82;0.80;;;;;;;9.00;100.00;98237.94;5071709;28;20047;-95
2022/09/16 03:23:04;;;;;;;5.22;0.60;;;;;;;9.11;100.00;98243.03;5088125;28;20066;-95
2022/09/16 03:25:55;;;;;;;2.15;0.50;;;;;;;9.16;100.00;98247.31;5070736;28;20171;-95
2022/09/16 03:28:38;;;;;;;2.70;0.50;;;;;;;9.20;100.00;98246.41;5075352;28;20032;-96
2022/09/16 03:31:14;;;;;;;1.80;0.50;;;;;;;9.43;100.00;98244.41;5075090;28;20040;-95
2022/09/16 03:34:00;;;;;;;3.20;0.70;;;;;;;9.50;100.00;98246.88;5076071;28;20035;-95
2022/09/16 03:36:32;;;;;;;3.00;0.60;;;;;;;9.56;100.00;98252.03;5076997;28;20024;-95
2022/09/16 03:39:00;;;;;;;2.25;0.50;;;;;;;9.56;100.00;98259.84;5076634;28;20028;-95
2022/09/16 03:41:29;;;;;;;2.33;0.47;;;;;;;9.69;100.00;98252.72;5073642;28;20090;-96
2022/09/16 03:43:57;;;;;;;2.90;0.60;;;;;;;9.71;100.00;98255.28;5075567;28;20024;-95
2022/09/16 03:46:24;;;;;;;2.63;0.65;;;;;;;9.72;100.00;98257.88;5072885;28;20039;-95
2022/09/16 03:48:49;;;;;;;1.88;0.50;;;;;;;9.74;100.00;98265.66;5093735;28;20039;-95
2022/09/16 03:51:15;;;;;;;4.05;1.08;;;;;;;9.69;100.00;98262.28;5075601;28;20047;-96
2022/09/16 03:53:41;;;;;;;2.15;0.45;;;;;;;9.68;100.00;98263.16;5075309;28;20069;-95
2022/09/16 03:56:06;;;;;;;2.38;0.60;;;;;;;9.90;100.00;98267.16;5074696;28;20679;-95
2022/09/16 03:58:32;;;;;;;1.70;0.47;;;;;;;9.78;100.00;98266.50;5078558;28;20039;-95
2022/09/16 04:00:57;;;;;;;2.60;0.50;;;;;;;9.84;100.00;98272.47;5092911;28;20031;-94
2022/09/16 04:03:23;;;;;;;3.80;0.65;;;;;;;9.93;100.00;98279.28;5094003;28;20028;-94
2022/09/16 04:05:55;;;;;;;2.80;0.60;;;;;;;9.83;100.00;98273.34;5094071;28;20121;-95
2022/09/16 04:08:21;;;;;;;1.60;0.40;;;;;;;9.23;100.00;98267.16;5090386;28;20106;-94
2022/09/16 04:10:56;;;;;;;1.70;0.40;;;;;;;9.81;100.00;98272.53;5092987;28;20065;-94
2022/09/16 04:13:23;;;;;;;2.25;0.60;;;;;;;9.93;100.00;98270.63;5074635;28;20028;-95
2022/09/16 04:15:49;;;;;;;3.90;0.50;;;;;;;10.05;100.00;98273.91;5089344;28;21167;-95
2022/09/16 04:18:14;;;;;;;1.20;0.40;;;;;;;9.97;100.00;98280.13;5072114;28;20024;-94
2022/09/16 04:20:41;;;;;;;3.70;0.52;;;;;;;9.99;100.00;98281.84;5074443;28;20102;-95
2022/09/16 04:23:07;;;;;;;4.95;0.70;;;;;;;10.13;100.00;98281.63;5066681;28;20037;-95
2022/09/16 04:25:32;;;;;;;1.73;0.43;;;;;;;10.06;100.00;98286.06;5076159;28;20127;-95
2022/09/16 04:27:58;;;;;;;1.23;0.40;;;;;;;10.01;100.00;98293.06;5071677;28;20147;-95
2022/09/16 04:30:24;;;;;;;2.53;0.57;;;;;;;10.19;100.00;98286.72;5076561;28;20111;-96
2022/09/16 04:32:55;;;;;;;2.97;0.60;;;;;;;10.17;100.00;98298.06;5091939;28;20130;-95
2022/09/16 04:35:21;;;;;;;0.85;0.40;;;;;;;10.12;100.00;98294.66;5092998;28;20642;-95
2022/09/16 04:37:47;;;;;;;1.55;0.40;;;;;;;10.01;100.00;98292.22;5074304;28;20016;-93
2022/09/16 04:40:12;;;;;;;2.97;0.70;;;;;;;10.17;100.00;98291.09;5073736;28;20043;-95
2022/09/16 04:42:40;;;;;;;3.03;0.52;;;;;;;9.98;100.00;98294.84;5084159;28;20036;-96
2022/09/16 04:45:07;;;;;;;2.63;0.55;;;;;;;10.05;100.00;98299.13;5081012;28;20106;-94
2022/09/16 04:47:32;;;;;;;2.55;0.50;;;;;;;10.09;100.00;98298.19;5076204;28;20727;-95
2022/09/16 04:49:58;;;;;;;1.42;0.47;;;;;;;10.20;100.00;98292.78;5072453;28;20157;-95
2022/09/16 04:52:23;;;;;;;2.83;0.60;;;;;;;10.18;100.00;98292.81;5098512;28;20361;-95
2022/09/16 04:54:49;;;;;;;2.00;0.50;;;;;;;10.00;100.00;98299.16;5072935;28;20202;-95
2022/09/16 04:57:15;;;;;;;2.30;0.60;;;;;;;10.03;100.00;98293.91;5075133;28;20036;-94
2022/09/16 04:59:41;;;;;;;3.75;0.60;;;;;;;10.04;100.00;98300.00;5075776;28;20039;-95
2022/09/16 05:02:06;;;;;;;3.63;0.60;;;;;;;10.01;100.00;98297.44;5075242;28;20047;-96
2022/09/16 05:04:31;;;;;;;1.15;0.30;;;;;;;10.06;100.00;98303.41;5070903;28;20035;-95
2022/09/16 05:06:57;;;;;;;0.77;0.40;;;;;;;10.06;100.00;98301.69;5088516;28;20031;-94
2022/09/16 05:09:22;;;;;;;0.75;0.35;;;;;;;9.95;100.00;98305.31;5092554;28;20043;-94
2022/09/16 05:11:48;;;;;;;3.70;0.70;;;;;;;10.15;100.00;98310.25;5078972;28;20032;-96
2022/09/16 05:14:16;;;;;;;3.10;0.45;;;;;;;10.16;100.00;98312.84;5071607;28;20038;-95
2022/09/16 05:16:43;;;;;;;1.75;0.57;;;;;;;10.01;100.00;98307.84;5075324;28;20031;-96
2022/09/16 05:19:13;;;;;;;3.05;0.50;;;;;;;9.90;100.00;98311.44;5071661;28;20086;-93
2022/09/16 05:21:39;;;;;;;4.22;0.70;;;;;;;10.04;100.00;98303.44;5069166;28;20687;-94
2022/09/16 05:24:07;;;;;;;3.92;0.60;;;;;;;9.94;100.00;98314.88;5084225;28;20028;-95
2022/09/16 05:26:34;;;;;;;1.48;0.38;;;;;;;9.82;100.00;98315.06;5064960;28;20044;-94
2022/09/16 05:29:02;;;;;;;1.55;0.45;;;;;;;9.86;100.00;98321.94;5071315;28;20071;-94
2022/09/16 05:31:30;;;;;;;3.22;0.68;;;;;;;9.75;100.00;98319.47;5068444;28;20024;-94
2022/09/16 05:33:58;;;;;;;2.42;0.40;;;;;;;9.56;100.00;98314.50;5089717;28;20031;-94
2022/09/16 05:36:25;;;;;;;2.30;0.43;;;;;;;9.63;100.00;98304.88;5087304;28;20468;-94
2022/09/16 05:38:51;;;;;;;3.97;0.52;;;;;;;9.62;100.00;98310.97;5067630;28;20551;-95
2022/09/16 05:41:16;;;;;;;1.17;0.30;;;;;;;9.62;100.00;98312.72;5088463;28;20024;-94
2022/09/16 05:43:42;;;;;;;2.28;0.70;;;;;;;9.53;100.00;98319.75;5069359;28;20086;-94
2022/09/16 05:46:14;;;;;;;1.90;0.50;;;;;;;9.10;100.00;98322.81;5085975;28;20079;-93
2022/09/16 05:48:40;;;;;;;1.98;0.47;;;;;;;9.18;100.00;98314.94;5084468;28;20032;-94
2022/09/16 05:51:06;;;;;;;1.75;0.50;;;;;;;9.47;100.00;98322.41;5069145;28;20028;-93
2022/09/16 05:53:33;;;;;;;2.03;0.60;;;;;;;9.40;100.00;98323.38;5085083;28;20114;-94
2022/09/16 05:56:04;;;;;;;2.85;0.50;;;;;;;9.10;100.00;98328.00;5070025;28;20048;-93
2022/09/16 05:58:32;;;;;;;4.25;0.73;;;;;;;8.71;100.00;98322.31;5079843;28;20063;-93
2022/09/16 06:01:06;;;;;;;1.55;0.55;;;;;;;9.17;100.00;98311.47;5056679;28;20024;-94
2022/09/16 06:03:33;;;;;;;1.13;0.40;;;;;;;9.14;100.00;98321.03;5064057;28;20032;-93
2022/09/16 06:06:25;;;;;;;2.67;0.60;;;;;;;8.31;100.00;98326.06;5053545;28;20029;-94
2022/09/16 06:08:53;;;;;;;1.95;0.63;;;;;;;8.29;100.00;98326.94;5060362;28;20794;-94
2022/09/16 06:11:19;;;;;;;2.75;0.55;;;;;;;8.18;100.00;98322.69;5069705;28;20024;-93
2022/09/16 06:13:45;;;;;;;1.95;0.50;;;;;;;8.93;100.00;98327.31;5053125;28;20085;-92
2022/09/16 06:16:10;;;;;;;2.80;0.60;;;;;;;8.85;100.00;98327.38;5056183;28;20024;-93
2022/09/16 06:18:36;;;;;;;1.38;0.40;;;;;;;8.88;100.00;98333.44;5050332;28;20047;-93
2022/09/16 06:21:40;;;;;;;2.22;0.50;;;;;;;8.29;100.00;98326.94;5045971;28;22147;-92
2022/09/16 06:24:09;;;;;;;1.75;0.50;;;;;;;8.51;100.00;98328.53;5043470;28;20673;-94
2022/09/16 06:26:40;;;;;;;1.15;0.45;;;;;;;8.87;100.00;98339.50;5043404;28;20025;-92
2022/09/16 06:29:09;;;;;;;2.05;0.55;;;;;;;8.56;100.00;98338.03;5018997;28;21850;-93
2022/09/16 06:31:36;;;;;;;3.72;0.70;;;;;;;8.68;100.00;98344.00;5046806;28;20083;-92
2022/09/16 06:34:03;;;;;;;3.33;0.55;;;;;;;8.85;100.00;98340.38;5028762;28;20062;-92
2022/09/16 06:36:33;;;;;;;1.75;0.50;;;;;;;8.93;100.00;98354.19;5025598;28;20024;-92
2022/09/16 06:38:58;;;;;;;2.22;0.60;;;;;;;9.10;100.00;98347.97;5043636;28;20033;-91
2022/09/16 06:41:24;;;;;;;1.58;0.40;;;;;;;9.11;100.00;98347.09;5028763;28;20035;-93
2022/09/16 06:43:50;;;;;;;3.83;1.20;;;;;;;9.07;100.00;98361.84;5045902;28;20039;-92
2022/09/16 06:46:19;;;;;;;2.97;0.70;;;;;;;9.25;100.00;98359.97;5040162;28;20037;-93
2022/09/16 06:48:53;;;;;;;4.18;0.77;;;;;;;9.39;100.00;98373.69;5026184;28;20040;-92
2022/09/16 06:51:21;;;;;;;3.95;0.60;;;;;;;9.44;100.00;98366.69;5048872;28;20119;-92
2022/09/16 06:53:49;;;;;;;0.93;0.30;;;;;;;9.45;100.00;98380.56;5028834;28;20115;-92
2022/09/16 06:56:17;;;;;;;1.30;0.40;;;;;;;9.46;100.00;98377.94;5032145;28;20044;-92
2022/09/16 06:58:48;;;;;;;2.50;0.50;;;;;;;9.52;100.00;98387.44;5079537;28;20514;-93
2022/09/16 07:01:19;;;;;;;2.70;0.52;;;;;;;9.48;100.00;98389.22;5062188;28;20423;-93
2022/09/16 07:03:47;;;;;;;1.88;0.50;;;;;;;9.55;100.00;98387.41;5079827;28;20144;-93
2022/09/16 07:06:14;;;;;;;2.70;0.65;;;;;;;9.63;100.00;98393.41;5079021;28;20476;-92
2022/09/16 07:08:41;;;;;;;2.75;0.73;;;;;;;9.65;100.00;98390.78;5060456;28;20084;-92
2022/09/16 07:11:14;;;;;;;1.58;0.45;;;;;;;9.30;100.00;98390.25;5078418;28;20024;-94
2022/09/16 07:13:41;;;;;;;1.42;0.47;;;;;;;9.56;100.00;98384.78;5063750;28;20597;-92
2022/09/16 07:16:13;;;;;;;3.17;0.68;;;;;;;9.79;100.00;98391.47;5068621;28;20039;-93
2022/09/16 07:18:41;;;;;;;1.40;0.40;;;;;;;9.78;100.00;98394.94;5084821;28;20024;-93
2022/09/16 07:21:14;;;;;;;3.50;0.68;;;;;;;9.88;100.00;98399.19;5087524;28;20024;-93
2022/09/16 07:23:41;;;;;;;1.83;0.47;;;;;;;9.78;100.00;98402.75;5087208;28;20036;-93
2022/09/16 07:26:15;;;;;;;1.10;0.30;;;;;;;9.97;100.00;98400.81;5069834;28;20197;-93
2022/09/16 07:28:42;;;;;;;4.50;0.70;;;;;;;10.14;100.00;98402.34;5080308;28;20053;-94
2022/09/16 07:31:14;;;;;;;1.52;0.40;;;;;;;10.11;100.00;98421.47;5066432;28;20397;-93
2022/09/16 07:33:42;;;;;;;1.58;0.35;;;;;;;10.23;100.00;98423.06;5068114;28;20057;-93
2022/09/16 07:36:10;;;;;;;2.35;0.70;;;;;;;10.17;100.00;98421.38;5084340;28;20119;-93
2022/09/16 07:38:37;;;;;;;3.33;0.50;;;;;;;10.22;100.00;98419.59;5069667;28;20759;-93
2022/09/16 07:41:10;;;;;;;2.85;0.60;;;;;;;9.97;100.00;98428.59;5088973;28;20495;-92
2022/09/16 07:43:39;;;;;;;3.40;0.50;;;;;;;10.27;100.00;98426.50;5067165;28;20063;-95
2022/09/16 07:46:05;;;;;;;2.65;0.60;;;;;;;10.27;100.00;98426.50;5079962;28;20032;-96
2022/09/16 07:48:31;;;;;;;1.25;0.38;;;;;;;9.76;100.00;98438.38;5069714;28;20103;-95
2022/09/16 07:51:15;;;;;;;1.40;0.40;;;;;;;10.04;100.00;98433.72;5077523;28;20081;-95
2022/09/16 07:53:43;;;;;;;1.55;0.40;;;;;;;10.13;100.00;98445.78;5076014;28;20024;-96
2022/09/16 07:56:17;;;;;;;2.53;0.60;;;;;;;10.34;100.00;98441.16;5081380;28;20531;-94
2022/09/16 07:58:44;;;;;;;0.40;0.20;;;;;;;10.40;100.00;98451.56;5071461;28;20020;-94
2022/09/16 08:01:10;;;;;;;2.00;0.40;;;;;;;10.22;100.00;98461.28;5073213;28;20480;-95
2022/09/16 08:03:38;;;;;;;2.50;0.50;;;;;;;10.41;100.00;98459.34;5087740;28;20542;-95
2022/09/16 08:06:09;;;;;;;1.80;0.45;;;;;;;10.35;100.00;98471.59;5085843;28;20690;-94
2022/09/16 08:08:35;;;;;;;1.67;0.40;;;;;;;10.37;100.00;98475.06;5087187;28;20459;-96
2022/09/16 08:11:02;;;;;;;2.95;0.60;;;;;;;10.57;100.00;98480.00;5100498;28;20070;-95
2022/09/16 08:13:30;;;;;;;1.08;0.30;;;;;;;10.40;100.00;98485.44;5083728;28;20021;-96
2022/09/16 08:16:02;;;;;;;1.73;0.40;;;;;;;10.54;100.00;98483.50;5074827;28;20088;-96
2022/09/16 08:18:28;;;;;;;2.08;0.57;;;;;;;10.48;100.00;98478.38;5092472;28;20035;-95
2022/09/16 08:20:53;;;;;;;3.20;0.60;;;;;;;10.67;100.00;98493.78;5097862;28;20038;-95
2022/09/16 08:23:19;;;;;;;2.33;0.50;;;;;;;10.49;100.00;98495.72;5078578;28;20080;-96
2022/09/16 08:25:45;;;;;;;4.05;0.68;;;;;;;10.31;100.00;98501.16;5073702;28;20089;-95
2022/09/16 08:28:41;;;;;;;2.08;0.50;;;;;;;10.27;100.00;98494.25;5106101;28;20429;-96
2022/09/16 08:31:09;;;;;;;2.88;0.70;;;;;;;10.36;100.00;98500.25;5069565;28;20484;-96
2022/09/16 08:33:37;;;;;;;1.52;0.40;;;;;;;10.44;100.00;98502.78;5075892;28;20028;-96
2022/09/16 08:36:21;;;;;;;3.53;0.60;;;;;;;10.46;100.00;98516.63;5079256;28;20035;-96
2022/09/16 08:38:49;;;;;;;3.72;0.57;;;;;;;10.61;100.00;98494.72;5076700;28;20028;-96
2022/09/16 08:41:17;;;;;;;3.17;0.63;;;;;;;10.77;100.00;98505.78;5070098;28;20032;-96
2022/09/16 08:43:56;;;;;;;3.17;0.60;;;;;;;10.69;100.00;98508.53;5067922;28;20487;-93
2022/09/16 08:46:30;;;;;;;2.72;0.70;;;;;;;10.49;100.00;98510.53;5063248;28;20039;-92
2022/09/16 08:49:10;;;;;;;1.67;0.50;;;;;;;10.21;100.00;98516.03;5059815;28;20055;-93
2022/09/16 08:51:35;;;;;;;1.35;0.45;;;;;;;10.22;100.00;98513.41;5088138;28;20059;-93
2022/09/16 08:54:11;;;;;;;1.27;0.40;;;;;;;10.70;100.00;98514.59;5075781;28;20380;-92
2022/09/16 08:56:37;;;;;;;3.15;0.60;;;;;;;10.71;100.00;98526.75;5091770;28;20040;-95
2022/09/16 08:59:10;;;;;;;2.35;0.40;;;;;;;10.77;100.00;98529.28;5079403;28;20386;-93
2022/09/16 09:01:47;;;;;;;1.80;0.57;;;;;;;10.66;100.00;98536.38;5073482;28;20100;-93
2022/09/16 09:04:23;;;;;;;2.83;0.60;;;;;;;10.71;100.00;98531.97;5095178;22;20048;-96
2022/09/16 09:09:40;;;;;;;2.25;0.60;;;;;;;10.41;100.00;98547.13;5024095;28;20080;-95
2022/09/16 09:18:04;;;;;;;5.43;0.50;;;;;;;11.23;100.00;98546.91;4392749;26;20041;-94
2022/09/16 09:23:11;;;;;;;3.40;0.60;;;;;;;11.65;100.00;98553.19;5069074;28;20056;-95
2022/09/16 09:25:56;;;;;;;3.50;0.65;;;;;;;11.50;100.00;98549.97;5072896;28;20039;-95
2022/09/16 09:28:23;;;;;;;4.22;0.77;;;;;;;11.28;100.00;98558.09;5046928;28;20044;-95
2022/09/16 09:31:24;;;;;;;2.20;0.60;;;;;;;11.35;100.00;98556.28;5079547;28;20032;-96
2022/09/16 09:34:21;;;;;;;1.10;0.40;;;;;;;11.12;100.00;98574.91;5081206;28;20448;-94
2022/09/16 09:37:13;;;;;;;5.07;0.60;;;;;;;11.22;100.00;98565.19;5063595;28;20032;-95
2022/09/16 09:39:59;;;;;;;2.03;0.50;;;;;;;11.64;100.00;98557.56;5060903;28;20035;-95
2022/09/16 09:42:31;;;;;;;2.15;0.45;;;;;;;11.74;100.00;98563.50;5061521;28;20543;-95
2022/09/16 09:45:04;;;;;;;2.13;0.57;;;;;;;11.88;100.00;98565.88;5071966;28;20044;-95
2022/09/16 09:47:37;;;;;;;2.95;0.55;;;;;;;12.17;100.00;98562.75;5074508;28;20027;-95
2022/09/16 09:50:25;;;;;;;3.90;0.70;;;;;;;12.51;100.00;98576.94;5072017;28;20064;-96
2022/09/16 09:53:11;;;;;;;1.90;0.60;;;;;;;12.94;100.00;98584.78;5056692;28;20024;-94
2022/09/16 09:55:40;;;;;;;1.38;0.40;;;;;;;12.02;100.00;98587.44;5075886;28;20028;-96
2022/09/16 09:58:25;;;;;;;3.75;0.63;;;;;;;11.36;100.00;98599.78;5076073;28;20078;-95
2022/09/16 10:00:57;;;;;;;4.22;0.68;;;;;;;11.38;100.00;98591.91;5056475;28;20096;-94
2022/09/16 10:03:23;;;;;;;2.22;0.80;;;;;;;13.81;100.00;98599.41;5057580;28;20040;-95
2022/09/16 10:05:49;;;;;;;2.80;0.80;;;;;;;13.65;100.00;98596.31;5056318;28;20051;-95
2022/09/16 10:08:23;;;;;;;3.55;0.90;;;;;;;13.64;100.00;98588.47;5056027;28;20052;-94
2022/09/16 10:11:00;;;;;;;4.35;0.85;;;;;;;12.72;100.00;98597.47;5074803;28;20060;-96
2022/09/16 10:13:31;;;;;;;3.28;0.60;;;;;;;12.12;100.00;98598.56;5053800;28;20035;-96
2022/09/16 10:16:12;;;;;;;4.82;0.63;;;;;;;11.46;100.00;98599.66;5057029;28;20090;-96
2022/09/16 10:18:39;;;;;;;2.22;0.57;;;;;;;12.40;100.00;98601.56;5056171;28;20028;-95
2022/09/16 10:21:25;;;;;;;2.55;0.80;;;;;;;12.96;100.00;98587.38;5045014;28;20046;-96
2022/09/16 10:23:57;;;;;;;4.75;0.82;;;;;;;12.94;100.00;98597.88;5018921;28;20505;-94
2022/09/16 10:26:27;;;;;;;2.42;0.63;;;;;;;13.18;100.00;98600.84;5018174;28;20041;-93
2022/09/16 10:29:02;;;;;;;3.10;0.55;;;;;;;12.27;100.00;98606.13;5024975;28;20040;-94
2022/09/16 10:31:36;;;;;;;1.92;0.50;;;;;;;12.90;100.00;98596.22;5028129;28;20481;-94
2022/09/16 10:34:12;;;;;;;0.40;0.20;;;;;;;12.50;100.00;98591.78;5021572;28;20048;-93
2022/09/16 10:36:37;;;;;;;3.75;0.90;;;;;;;12.08;100.00;98603.00;5023822;28;20025;-93
2022/09/16 10:39:04;;;;;;;2.72;0.60;;;;;;;11.66;100.00;98609.78;5026400;28;20417;-94
2022/09/16 10:41:34;;;;;;;1.00;0.40;;;;;;;11.99;100.00;98591.88;5028103;28;20025;-93
2022/09/16 10:44:06;;;;;;;2.38;0.50;;;;;;;12.28;100.00;98599.19;5024765;28;20837;-94
2022/09/16 10:46:32;;;;;;;4.13;0.70;;;;;;;12.17;100.00;98596.75;5027973;28;20033;-94
2022/09/16 10:49:11;;;;;;;5.43;1.10;;;;;;;12.80;100.00;98589.44;5027664;28;20032;-94
2022/09/16 10:51:37;;;;;;;2.05;0.57;;;;;;;12.23;100.00;98599.28;5018153;28;20060;-93
2022/09/16 10:54:22;;;;;;;5.30;0.90;;;;;;;12.63;100.00;98608.94;5028655;28;20041;-95
2022/09/16 10:56:50;;;;;;;3.03;0.70;;;;;;;12.93;100.00;98606.63;5029377;28;20044;-94
2022/09/16 10:59:15;;;;;;;2.33;0.60;;;;;;;13.21;100.00;98607.75;5030550;28;20037;-95
2022/09/16 11:02:24;;;;;;;1.95;0.60;;;;;;;13.28;100.00;98617.22;5042978;28;20039;-95
2022/09/16 11:05:05;;;;;;;1.52;0.45;;;;;;;13.55;100.00;98610.50;5031906;28;20025;-93
2022/09/16 11:07:44;;;;;;;3.28;0.70;;;;;;;13.75;100.00;98628.41;5022432;28;20140;-93
2022/09/16 11:10:58;;;;;;;1.60;0.35;;;;;;;12.13;100.00;98626.44;5030131;28;20653;-93
2022/09/16 11:13:41;;;;;;;1.88;0.50;;;;;;;12.08;100.00;98620.44;4995403;28;20060;-94
2022/09/16 11:16:12;;;;;;;0.90;0.30;;;;;;;11.79;100.00;98630.47;5036665;28;20041;-93
2022/09/16 11:18:55;;;;;;;1.75;0.30;;;;;;;11.46;100.00;98634.47;5032710;28;20044;-93
2022/09/16 11:21:29;;;;;;;2.20;0.60;;;;;;;11.86;100.00;98630.38;5026746;28;20044;-94
2022/09/16 11:24:15;;;;;;;0.45;0.25;;;;;;;12.50;100.00;98636.25;5035609;28;20167;-95
2022/09/16 11:27:14;;;;;;;1.95;0.52;;;;;;;12.74;100.00;98628.81;5025766;28;20564;-94
2022/09/16 11:29:45;;;;;;;2.78;0.50;;;;;;;12.89;100.00;98641.59;5010795;28;20029;-94
2022/09/16 11:32:43;;;;;;;2.55;0.50;;;;;;;12.32;100.00;98639.19;5035796;28;20540;-92
2022/09/16 11:35:30;;;;;;;1.60;0.40;;;;;;;12.56;100.00;98643.97;5010495;28;20036;-92
2022/09/16 11:38:07;;;;;;;2.30;0.50;;;;;;;11.89;100.00;98641.63;5029576;28;20112;-93
2022/09/16 11:40:51;;;;;;;2.95;0.70;;;;;;;11.91;100.00;98644.22;5025970;28;20038;-94
2022/09/16 11:43:28;;;;;;;2.95;0.40;;;;;;;11.92;100.00;98649.41;5032219;28;20064;-93
2022/09/16 11:46:06;;;;;;;0.82;0.30;;;;;;;12.37;100.00;98647.81;5026417;28;20029;-93
2022/09/16 11:49:12;;;;;;;2.17;0.60;;;;;;;12.78;100.00;98648.81;5013028;28;21057;-93
2022/09/16 11:51:53;;;;;;;3.17;0.50;;;;;;;12.87;100.00;98652.97;5028108;28;20124;-93
2022/09/16 11:54:51;;;;;;;1.08;0.30;;;;;;;12.73;100.00;98646.25;5030508;28;20048;-93
2022/09/16 11:57:28;;;;;;;1.45;0.40;;;;;;;13.19;100.00;98660.16;5014631;28;20045;-93
2022/09/16 12:00:12;;;;;;;2.80;0.50;;;;;;;12.58;100.00;98657.91;5013870;28;20056;-93
2022/09/16 12:02:59;;;;;;;0.80;0.35;;;;;;;13.17;100.00;98656.72;5029046;28;20061;-94
2022/09/16 12:05:52;;;;;;;1.50;0.40;;;;;;;13.08;100.00;98663.03;5030477;28;20410;-94
2022/09/16 12:09:01;;;;;;;3.60;0.52;;;;;;;13.53;100.00;98654.22;5027884;28;20060;-93